createdAt,value
2019-04-16T00:00:59.463Z,16.6
2019-04-16T00:01:59.558Z,14.3
2019-04-16T00:02:59.581Z,16.9
2019-04-16T00:03:59.631Z,14.6
2019-04-16T00:04:59.705Z,16.5
2019-04-16T00:06:00.041Z,16.6
2019-04-16T00:07:00.801Z,21.9
2019-04-16T00:07:59.893Z,16.799999
2019-04-16T00:08:59.935Z,19.5
2019-04-16T00:10:00.025Z,17.799999
2019-04-16T00:11:00.090Z,16.1
2019-04-16T00:12:00.173Z,13.7
2019-04-16T00:13:00.241Z,16.4
2019-04-16T00:14:02.944Z,19.200001
2019-04-16T00:15:01.404Z,14.6
2019-04-16T00:16:00.659Z,14.4
2019-04-16T00:17:00.550Z,16.1
2019-04-16T00:18:00.640Z,16.4
2019-04-16T00:19:04.124Z,15.9
2019-04-16T00:20:05.623Z,15.5
2019-04-16T00:21:01.834Z,15.1
2019-04-16T00:22:00.930Z,16.9
2019-04-16T00:23:01.004Z,15.6
2019-04-16T00:24:02.049Z,16.9
2019-04-16T00:25:01.109Z,16.200001
2019-04-16T00:26:01.226Z,15.8
2019-04-16T00:27:01.280Z,16
2019-04-16T00:28:01.319Z,15.5
2019-04-16T00:29:02.788Z,18
2019-04-16T00:30:04.841Z,15.2
2019-04-16T00:31:04.626Z,16
2019-04-16T00:32:02.574Z,16.200001
2019-04-16T00:33:01.636Z,16.6
2019-04-16T00:34:01.732Z,14.3
2019-04-16T00:35:01.760Z,15.1
2019-04-16T00:36:01.876Z,15.5
2019-04-16T00:37:01.958Z,16.299999
2019-04-16T00:38:02.034Z,15.5
2019-04-16T00:39:03.223Z,15
2019-04-16T00:40:02.097Z,16.4
2019-04-16T00:41:02.360Z,13.8
2019-04-16T00:42:02.269Z,15.3
2019-04-16T00:43:02.352Z,16.700001
2019-04-16T00:44:02.418Z,16.200001
2019-04-16T00:45:02.470Z,17.1
2019-04-16T00:46:02.579Z,16.799999
2019-04-16T00:47:02.891Z,18.1
2019-04-16T00:48:02.736Z,16.200001
2019-04-16T00:49:02.802Z,16.299999
2019-04-16T00:50:02.851Z,14.5
2019-04-16T00:51:02.917Z,14.2
2019-04-16T00:52:05.343Z,15
2019-04-16T00:53:07.567Z,15.7
2019-04-16T00:54:04.159Z,15.3
2019-04-16T00:55:03.206Z,14.3
2019-04-16T00:56:03.256Z,14.1
2019-04-16T00:57:03.347Z,16
2019-04-16T00:58:03.431Z,18.200001
2019-04-16T00:59:03.488Z,16.799999
2019-04-16T01:00:03.519Z,16.299999
2019-04-16T01:01:03.585Z,15.2
2019-04-16T01:02:03.681Z,14.1
2019-04-16T01:03:03.766Z,17.6
2019-04-16T01:04:03.851Z,15.4
2019-04-16T01:05:03.895Z,14.4
2019-04-16T01:06:06.716Z,15.4
2019-04-16T01:07:05.079Z,16
2019-04-16T01:08:04.143Z,17.1
2019-04-16T01:09:04.192Z,14.3
2019-04-16T01:10:04.248Z,15.7
2019-04-16T01:11:04.331Z,15.3
2019-04-16T01:12:04.454Z,16.700001
2019-04-16T01:13:04.535Z,16
2019-04-16T01:14:04.584Z,16.299999
2019-04-16T01:15:04.639Z,17
2019-04-16T01:16:04.678Z,16.9
2019-04-16T01:17:05.270Z,17.5
2019-04-16T01:18:07.734Z,17.299999
2019-04-16T01:19:09.445Z,17.6
2019-04-16T01:20:05.968Z,16.700001
2019-04-16T01:21:05.029Z,16.6
2019-04-16T01:22:05.143Z,22.6
2019-04-16T01:23:05.235Z,24.200001
2019-04-16T01:24:05.301Z,22.6
2019-04-16T01:25:05.523Z,18.4
2019-04-16T01:26:05.427Z,17.299999
2019-04-16T01:27:05.712Z,16
2019-04-16T01:28:05.679Z,15.7
2019-04-16T01:29:05.585Z,17.299999
2019-04-16T01:30:06.435Z,16.1
2019-04-16T01:31:07.875Z,16.1
2019-04-16T01:32:09.713Z,16
2019-04-16T01:33:06.861Z,18.1
2019-04-16T01:34:05.953Z,15
2019-04-16T01:35:06.012Z,15.7
2019-04-16T01:36:06.080Z,15.5
2019-04-16T01:37:06.118Z,15.6
2019-04-16T01:38:06.257Z,16.5
2019-04-16T01:39:15.520Z,16.9
2019-04-16T01:40:07.327Z,15.2
2019-04-16T01:41:06.383Z,15.2
2019-04-16T01:42:06.454Z,15.2
2019-04-16T01:43:06.530Z,16.700001
2019-04-16T01:44:06.600Z,16.6
2019-04-16T01:45:06.640Z,16.700001
2019-04-16T01:46:06.672Z,17.5
2019-04-16T01:47:06.725Z,18.200001
2019-04-16T01:48:08.173Z,17.700001
2019-04-16T01:49:10.211Z,16.4
2019-04-16T01:50:12.705Z,16.5
2019-04-16T01:51:07.961Z,16.700001
2019-04-16T01:52:07.013Z,18.4
2019-04-16T01:53:07.102Z,18.6
2019-04-16T01:54:07.270Z,15.5
2019-04-16T01:55:07.165Z,17.1
2019-04-16T01:56:07.223Z,17.700001
2019-04-16T01:57:07.262Z,16.5
2019-04-16T01:58:07.300Z,15.7
2019-04-16T01:59:07.360Z,15.9
2019-04-16T02:00:08.485Z,20.6
2019-04-16T02:01:11.097Z,17.9
2019-04-16T02:02:08.495Z,19
2019-04-16T02:03:07.563Z,16.799999
2019-04-16T02:04:07.661Z,16.700001
2019-04-16T02:05:07.712Z,18.299999
2019-04-16T02:06:07.776Z,16.1
2019-04-16T02:07:08.810Z,15.8
2019-04-16T02:08:07.861Z,14.7
2019-04-16T02:09:16.047Z,15.8
2019-04-16T02:10:09.472Z,16.700001
2019-04-16T02:11:10.565Z,15
2019-04-16T02:12:12.728Z,15.6
2019-04-16T02:13:09.106Z,16.4
2019-04-16T02:14:08.180Z,16.5
2019-04-16T02:15:08.255Z,13.7
2019-04-16T02:16:08.314Z,16.4
2019-04-16T02:17:08.389Z,17.700001
2019-04-16T02:18:08.454Z,15.5
2019-04-16T02:19:08.528Z,17.5
2019-04-16T02:20:08.551Z,16.700001
2019-04-16T02:21:10.491Z,19.200001
2019-04-16T02:22:12.496Z,17.299999
2019-04-16T02:23:09.710Z,17.200001
2019-04-16T02:24:08.801Z,18.700001
2019-04-16T02:25:08.869Z,20
2019-04-16T02:26:08.927Z,18
2019-04-16T02:27:08.995Z,16.9
2019-04-16T02:28:09.066Z,18.299999
2019-04-16T02:29:09.407Z,18.4
2019-04-16T02:30:09.233Z,18.799999
2019-04-16T02:31:15.226Z,17
2019-04-16T02:32:10.328Z,18
2019-04-16T02:33:09.379Z,16.5
2019-04-16T02:34:09.481Z,15.4
2019-04-16T02:35:09.530Z,15.3
2019-04-16T02:36:09.593Z,19.200001
2019-04-16T02:37:09.629Z,20.799999
2019-04-16T02:38:12.160Z,22
2019-04-16T02:39:10.776Z,17.200001
2019-04-16T02:40:16.537Z,17.4
2019-04-16T02:41:10.921Z,16.799999
2019-04-16T02:42:09.937Z,15.7
2019-04-16T02:43:09.951Z,16.1
2019-04-16T02:44:13.958Z,15.9
2019-04-16T02:45:11.076Z,16.799999
2019-04-16T02:46:10.122Z,16.6
2019-04-16T02:47:10.149Z,14.7
2019-04-16T02:48:14.478Z,18.700001
2019-04-16T02:49:11.285Z,16.700001
2019-04-16T02:50:10.377Z,17
2019-04-16T02:51:10.401Z,14.3
2019-04-16T02:52:14.840Z,15.9
2019-04-16T02:53:11.507Z,16.4
2019-04-16T02:54:10.553Z,18.299999
2019-04-16T02:55:11.139Z,16.200001
2019-04-16T02:56:16.945Z,16.4
2019-04-16T02:57:11.700Z,16.299999
2019-04-16T02:58:10.744Z,14.9
2019-04-16T02:59:13.160Z,15.5
2019-04-16T03:00:12.004Z,16.299999
2019-04-16T03:01:10.893Z,15
2019-04-16T03:02:10.968Z,15.4
2019-04-16T03:03:11.026Z,15.1
2019-04-16T03:04:11.091Z,17.6
2019-04-16T03:05:11.192Z,14.8
2019-04-16T03:06:11.237Z,16.9
2019-04-16T03:07:11.287Z,15.8
2019-04-16T03:08:11.329Z,16.5
2019-04-16T03:09:11.393Z,16.6
2019-04-16T03:10:13.027Z,15.5
2019-04-16T03:11:13.713Z,15.1
2019-04-16T03:12:12.553Z,15.6
2019-04-16T03:13:11.606Z,14.5
2019-04-16T03:14:11.662Z,16.200001
2019-04-16T03:15:11.724Z,18
2019-04-16T03:16:11.811Z,16.700001
2019-04-16T03:17:11.911Z,16.9
2019-04-16T03:18:14.839Z,15.3
2019-04-16T03:19:12.970Z,15.7
2019-04-16T03:20:12.096Z,15.5
2019-04-16T03:21:12.148Z,15.9
2019-04-16T03:22:12.231Z,15.9
2019-04-16T03:23:12.263Z,16.799999
2019-04-16T03:24:12.298Z,18.700001
2019-04-16T03:25:14.094Z,17.200001
2019-04-16T03:26:16.681Z,14.8
2019-04-16T03:27:13.528Z,19.200001
2019-04-16T03:28:12.575Z,16.200001
2019-04-16T03:29:12.624Z,16.200001
2019-04-16T03:30:12.676Z,17.200001
2019-04-16T03:31:19.265Z,16.200001
2019-04-16T03:32:15.155Z,14.8
2019-04-16T03:33:15.074Z,15.2
2019-04-16T03:34:13.803Z,15.1
2019-04-16T03:35:12.858Z,15.4
2019-04-16T03:36:12.938Z,14.4
2019-04-16T03:37:12.982Z,16.4
2019-04-16T03:38:13.022Z,16.9
2019-04-16T03:39:13.906Z,15.3
2019-04-16T03:40:16.818Z,14.3
2019-04-16T03:41:14.129Z,15.9
2019-04-16T03:42:13.403Z,14.9
2019-04-16T03:43:13.277Z,16.1
2019-04-16T03:44:13.317Z,15.5
2019-04-16T03:45:13.341Z,19.4
2019-04-16T03:46:14.151Z,14.9
2019-04-16T03:47:15.602Z,15.8
2019-04-16T03:48:14.580Z,14.8
2019-04-16T03:49:13.636Z,17.1
2019-04-16T03:50:13.706Z,14.7
2019-04-16T03:51:13.778Z,17.1
2019-04-16T03:52:13.829Z,16.5
2019-04-16T03:53:17.428Z,14.3
2019-04-16T03:54:14.948Z,15.8
2019-04-16T03:55:14.198Z,15.9
2019-04-16T03:56:14.115Z,15.7
2019-04-16T03:57:14.182Z,14.2
2019-04-16T03:58:14.212Z,15.4
2019-04-16T03:59:14.239Z,16.700001
2019-04-16T04:00:14.291Z,15.7
2019-04-16T04:01:15.399Z,15.6
2019-04-16T04:02:19.120Z,15.6
2019-04-16T04:03:15.470Z,15.9
2019-04-16T04:04:14.631Z,16
2019-04-16T04:05:14.534Z,14.8
2019-04-16T04:06:14.596Z,15.6
2019-04-16T04:07:14.711Z,15.3
2019-04-16T04:08:17.337Z,15.2
2019-04-16T04:09:18.705Z,15.4
2019-04-16T04:10:28.955Z,15.2
2019-04-16T04:11:15.876Z,15.5
2019-04-16T04:12:14.994Z,14.5
2019-04-16T04:13:18.326Z,16.200001
2019-04-16T04:14:16.106Z,16.299999
2019-04-16T04:15:15.157Z,15.1
2019-04-16T04:16:15.288Z,16.299999
2019-04-16T04:17:15.372Z,14.3
2019-04-16T04:18:15.391Z,15
2019-04-16T04:19:16.029Z,14.5
2019-04-16T04:20:18.050Z,14.7
2019-04-16T04:21:20.892Z,15.3
2019-04-16T04:22:16.695Z,16.299999
2019-04-16T04:23:15.783Z,15.3
2019-04-16T04:24:15.824Z,14.4
2019-04-16T04:25:15.888Z,13.6
2019-04-16T04:26:15.927Z,15.3
2019-04-16T04:27:18.899Z,15.6
2019-04-16T04:28:19.598Z,18.1
2019-04-16T04:29:17.118Z,15.1
2019-04-16T04:30:16.183Z,14.7
2019-04-16T04:31:16.239Z,14.3
2019-04-16T04:32:16.322Z,13.6
2019-04-16T04:33:16.355Z,14.6
2019-04-16T04:34:17.200Z,15.4
2019-04-16T04:35:21.024Z,14.4
2019-04-16T04:36:19.196Z,16.1
2019-04-16T04:37:17.643Z,15.5
2019-04-16T04:38:16.753Z,14.5
2019-04-16T04:39:16.816Z,13.4
2019-04-16T04:40:17.501Z,16
2019-04-16T04:41:19.820Z,14.5
2019-04-16T04:42:19.113Z,14
2019-04-16T04:43:18.243Z,12.9
2019-04-16T04:44:17.288Z,16.799999
2019-04-16T04:45:17.379Z,16.299999
2019-04-16T04:46:17.520Z,13.1
2019-04-16T04:47:19.218Z,15
2019-04-16T04:48:22.937Z,14.1
2019-04-16T04:49:18.822Z,14.5
2019-04-16T04:50:17.981Z,14
2019-04-16T04:51:18.961Z,13.7
2019-04-16T04:52:18.116Z,14.6
2019-04-16T04:53:19.488Z,14.1
2019-04-16T04:54:21.457Z,13.6
2019-04-16T04:55:19.277Z,14.6
2019-04-16T04:56:19.480Z,16.200001
2019-04-16T04:57:19.461Z,13.3
2019-04-16T04:58:18.479Z,16.1
2019-04-16T04:59:18.475Z,14.4
2019-04-16T05:00:18.461Z,14.5
2019-04-16T05:01:18.619Z,14.9
2019-04-16T05:02:18.786Z,13.9
2019-04-16T05:03:18.783Z,13.7
2019-04-16T05:04:20.318Z,13.4
2019-04-16T05:05:23.997Z,14.9
2019-04-16T05:06:20.088Z,13
2019-04-16T05:07:19.080Z,14.3
2019-04-16T05:08:19.115Z,15.5
2019-04-16T05:09:19.115Z,14.3
2019-04-16T05:10:19.119Z,14.4
2019-04-16T05:11:19.125Z,14.4
2019-04-16T05:12:21.244Z,13.1
2019-04-16T05:13:23.859Z,13.9
2019-04-16T05:14:20.291Z,14.3
2019-04-16T05:15:19.330Z,14.8
2019-04-16T05:16:19.338Z,16.6
2019-04-16T05:17:19.335Z,15.7
2019-04-16T05:18:19.353Z,12.4
2019-04-16T05:19:19.354Z,14.5
2019-04-16T05:20:19.332Z,15
2019-04-16T05:21:19.647Z,15.7
2019-04-16T05:22:21.492Z,12.4
2019-04-16T05:23:24.608Z,12.4
2019-04-16T05:24:20.721Z,13.8
2019-04-16T05:25:19.720Z,14.3
2019-04-16T05:26:19.716Z,13.9
2019-04-16T05:27:19.721Z,12.3
2019-04-16T05:28:19.725Z,14.7
2019-04-16T05:29:19.734Z,12.8
2019-04-16T05:30:20.743Z,12.5
2019-04-16T05:31:24.076Z,13.4
2019-04-16T05:32:20.753Z,12.8
2019-04-16T05:33:19.829Z,12.6
2019-04-16T05:34:19.824Z,13.2
2019-04-16T05:35:19.825Z,13.2
2019-04-16T05:36:21.248Z,13.8
2019-04-16T05:37:21.215Z,13
2019-04-16T05:38:20.393Z,12.2
2019-04-16T05:39:21.109Z,16.799999
2019-04-16T05:40:20.126Z,12.8
2019-04-16T05:41:21.901Z,14.3
2019-04-16T05:42:22.362Z,12.4
2019-04-16T05:43:22.628Z,12.6
2019-04-16T05:44:21.445Z,13.9
2019-04-16T05:45:20.481Z,13.6
2019-04-16T05:46:20.458Z,12.4
2019-04-16T05:47:20.439Z,11.5
2019-04-16T05:48:21.586Z,14.9
2019-04-16T05:49:24.548Z,13.1
2019-04-16T05:50:21.780Z,13.1
2019-04-16T05:51:20.965Z,12.3
2019-04-16T05:52:20.979Z,13.6
2019-04-16T05:53:20.982Z,14.2
2019-04-16T05:54:21.008Z,11.4
2019-04-16T05:55:21.006Z,12.3
2019-04-16T05:56:23.696Z,16.4
2019-04-16T05:57:25.595Z,12.7
2019-04-16T05:58:22.025Z,13.4
2019-04-16T05:59:21.395Z,13
2019-04-16T06:00:21.144Z,12.1
2019-04-16T06:01:21.133Z,13.7
2019-04-16T06:02:21.269Z,15.2
2019-04-16T06:03:22.365Z,13.8
2019-04-16T06:04:24.674Z,14.1
2019-04-16T06:05:26.734Z,11.9
2019-04-16T06:06:22.663Z,13.7
2019-04-16T06:07:21.657Z,16.5
2019-04-16T06:08:21.743Z,14.6
2019-04-16T06:09:21.711Z,20.6
2019-04-16T06:10:21.734Z,20.700001
2019-04-16T06:11:28.922Z,16.9
2019-04-16T06:12:22.897Z,14
2019-04-16T06:13:21.879Z,11.6
2019-04-16T06:14:25.198Z,14.8
2019-04-16T06:15:23.180Z,13.9
2019-04-16T06:16:25.123Z,12.9
2019-04-16T06:17:25.396Z,15.3
2019-04-16T06:18:23.317Z,13.1
2019-04-16T06:19:22.465Z,12.8
2019-04-16T06:20:22.487Z,13.7
2019-04-16T06:21:25.596Z,12.4
2019-04-16T06:22:28.085Z,12.4
2019-04-16T06:23:23.492Z,13.5
2019-04-16T06:24:22.503Z,11
2019-04-16T06:25:22.512Z,14.1
2019-04-16T06:26:22.496Z,11.9
2019-04-16T06:27:22.668Z,11.2
2019-04-16T06:28:22.662Z,13
2019-04-16T06:29:25.331Z,11.9
2019-04-16T06:30:23.701Z,13.1
2019-04-16T06:31:22.740Z,12.9
2019-04-16T06:32:22.745Z,13
2019-04-16T06:33:22.771Z,11.6
2019-04-16T06:34:24.116Z,11.2
2019-04-16T06:35:23.808Z,13.4
2019-04-16T06:36:22.801Z,11.6
2019-04-16T06:37:26.737Z,13.8
2019-04-16T06:38:23.844Z,13.3
2019-04-16T06:39:22.882Z,10.5
2019-04-16T06:40:22.897Z,12.2
2019-04-16T06:41:22.929Z,13.8
2019-04-16T06:42:23.221Z,14.3
2019-04-16T06:43:26.075Z,13.4
2019-04-16T06:44:23.933Z,10.7
2019-04-16T06:45:23.104Z,12.9
2019-04-16T06:46:23.132Z,11.1
2019-04-16T06:47:23.119Z,12.3
2019-04-16T06:48:23.273Z,11.7
2019-04-16T06:49:23.452Z,14.3
2019-04-16T06:50:31.014Z,14.3
2019-04-16T06:51:24.731Z,11
2019-04-16T06:52:23.697Z,10.4
2019-04-16T06:53:24.977Z,12.4
2019-04-16T06:54:25.827Z,12
2019-04-16T06:55:25.023Z,11.4
2019-04-16T06:56:24.043Z,13.3
2019-04-16T06:57:26.735Z,13.3
2019-04-16T06:58:27.428Z,13.2
2019-04-16T06:59:26.307Z,11.9
2019-04-16T07:00:25.145Z,13.4
2019-04-16T07:01:24.137Z,14.8
2019-04-16T07:02:24.988Z,12
2019-04-16T07:03:26.988Z,12.2
2019-04-16T07:04:29.445Z,13.8
2019-04-16T07:05:25.493Z,14.1
2019-04-16T07:06:24.530Z,11.7
2019-04-16T07:07:24.570Z,17.1
2019-04-16T07:08:36.714Z,38.400002
2019-04-16T07:09:26.479Z,43.799999
2019-04-16T07:10:28.603Z,29.700001
2019-04-16T07:11:25.736Z,23.6
2019-04-16T07:12:24.828Z,17.1
2019-04-16T07:13:24.823Z,14.1
2019-04-16T07:14:24.809Z,12.6
2019-04-16T07:15:28.180Z,14.4
2019-04-16T07:16:28.855Z,12.9
2019-04-16T07:17:26.311Z,12.2
2019-04-16T07:18:25.353Z,12.6
2019-04-16T07:19:25.383Z,14.5
2019-04-16T07:20:25.365Z,13.7
2019-04-16T07:21:25.380Z,13.7
2019-04-16T07:22:25.378Z,13.5
2019-04-16T07:23:25.967Z,13
2019-04-16T07:24:29.908Z,14.4
2019-04-16T07:25:28.330Z,11.8
2019-04-16T07:26:26.873Z,11.8
2019-04-16T07:27:25.837Z,11.2
2019-04-16T07:28:27.013Z,11.9
2019-04-16T07:29:28.704Z,13.1
2019-04-16T07:30:26.933Z,11.6
2019-04-16T07:32:27.008Z,12
2019-04-16T07:33:26.008Z,12.5
2019-04-16T07:34:25.993Z,12
2019-04-16T07:34:34.810Z,12.1
2019-04-16T07:35:27.157Z,10.9
2019-04-16T07:36:28.000Z,10.9
2019-04-16T07:37:26.196Z,12.6
2019-04-16T07:38:26.257Z,14.6
2019-04-16T07:39:29.786Z,20.200001
2019-04-16T07:40:27.388Z,21.1
2019-04-16T07:41:26.394Z,18
2019-04-16T07:42:26.546Z,16.9
2019-04-16T07:43:30.894Z,14.7
2019-04-16T07:44:27.487Z,13.3
2019-04-16T07:45:26.478Z,14.9
2019-04-16T07:46:26.488Z,13.8
2019-04-16T07:47:26.488Z,13.6
2019-04-16T07:48:26.533Z,11.7
2019-04-16T07:49:27.151Z,11.5
2019-04-16T07:50:26.543Z,12.7
2019-04-16T07:51:26.560Z,13.6
2019-04-16T07:52:26.582Z,12.3
2019-04-16T07:53:26.776Z,13.7
2019-04-16T07:54:26.616Z,12.1
2019-04-16T07:55:27.466Z,11.1
2019-04-16T07:56:26.628Z,12.2
2019-04-16T07:57:27.633Z,11.9
2019-04-16T07:58:26.669Z,12.3
2019-04-16T07:59:26.783Z,12.1
2019-04-16T08:00:26.710Z,12.1
2019-04-16T08:01:26.717Z,13.6
2019-04-16T08:02:26.712Z,13.1
2019-04-16T08:03:27.613Z,14.1
2019-04-16T08:04:29.132Z,11.6
2019-04-16T08:05:28.250Z,12
2019-04-16T08:06:26.864Z,11.3
2019-04-16T08:07:26.860Z,12.4
2019-04-16T08:08:26.905Z,10.6
2019-04-16T08:09:29.773Z,11.7
2019-04-16T08:10:28.042Z,11.5
2019-04-16T08:11:27.112Z,11.7
2019-04-16T08:12:30.222Z,11.2
2019-04-16T08:13:33.011Z,12.1
2019-04-16T08:14:28.444Z,11.4
2019-04-16T08:15:27.415Z,13.3
2019-04-16T08:16:27.430Z,10.2
2019-04-16T08:17:27.442Z,11
2019-04-16T08:18:27.480Z,12.2
2019-04-16T08:19:36.463Z,10.7
2019-04-16T08:20:28.473Z,12.4
2019-04-16T08:21:27.643Z,10.7
2019-04-16T08:22:27.764Z,13.6
2019-04-16T08:23:27.707Z,11.5
2019-04-16T08:24:27.760Z,11.4
2019-04-16T08:25:33.223Z,10.3
2019-04-16T08:26:28.778Z,11
2019-04-16T08:27:27.767Z,10.7
2019-04-16T08:28:27.800Z,10.2
2019-04-16T08:29:27.846Z,10.3
2019-04-16T08:30:27.872Z,10.5
2019-04-16T08:31:27.886Z,10.4
2019-04-16T08:32:27.913Z,10.1
2019-04-16T08:33:29.153Z,10.4
2019-04-16T08:34:29.131Z,9.8
2019-04-16T08:35:28.134Z,10
2019-04-16T08:36:28.139Z,9.4
2019-04-16T08:37:28.158Z,10.5
2019-04-16T08:38:28.474Z,11.1
2019-04-16T08:39:28.361Z,10
2019-04-16T08:40:28.383Z,11
2019-04-16T08:41:28.387Z,10
2019-04-16T08:42:29.543Z,10
2019-04-16T08:43:29.897Z,10.8
2019-04-16T08:44:29.455Z,13.3
2019-04-16T08:45:28.518Z,12.6
2019-04-16T08:46:28.529Z,9.9
2019-04-16T08:47:28.555Z,12.2
2019-04-16T08:48:28.542Z,11.2
2019-04-16T08:49:28.539Z,11.1
2019-04-16T08:50:28.562Z,10.8
2019-04-16T08:51:30.523Z,13
2019-04-16T08:52:29.696Z,11.4
2019-04-16T08:53:28.736Z,10.1
2019-04-16T08:54:28.737Z,10.3
2019-04-16T08:55:28.775Z,11.4
2019-04-16T08:56:28.797Z,10.2
2019-04-16T08:57:31.400Z,10.9
2019-04-16T08:58:29.810Z,11.4
2019-04-16T08:59:28.863Z,10.7
2019-04-16T09:00:28.904Z,13.6
2019-04-16T09:01:28.894Z,12.7
2019-04-16T09:02:29.076Z,13.4
2019-04-16T09:03:29.945Z,11.7
2019-04-16T09:04:33.959Z,11.7
2019-04-16T09:05:30.222Z,10.8
2019-04-16T09:06:29.233Z,10.1
2019-04-16T09:07:29.247Z,10.7
2019-04-16T09:08:29.250Z,10.8
2019-04-16T09:09:29.233Z,10.8
2019-04-16T09:10:30.834Z,12.2
2019-04-16T09:11:34.985Z,11.8
2019-04-16T09:12:30.382Z,10.5
2019-04-16T09:13:29.366Z,12.5
2019-04-16T09:14:29.403Z,10.8
2019-04-16T09:15:29.502Z,12.4
2019-04-16T09:16:29.527Z,11.5
2019-04-16T09:17:29.551Z,11.9
2019-04-16T09:18:29.709Z,11.6
2019-04-16T09:19:29.818Z,11.7
2019-04-16T09:20:29.943Z,12.6
2019-04-16T09:21:29.936Z,12.1
2019-04-16T09:22:29.985Z,12.6
2019-04-16T09:23:30.009Z,11.7
2019-04-16T09:24:30.061Z,12.7
2019-04-16T09:25:30.239Z,11.2
2019-04-16T09:26:30.232Z,11.1
2019-04-16T09:27:33.949Z,10.8
2019-04-16T09:28:32.057Z,11.5
2019-04-16T09:29:30.452Z,11.4
2019-04-16T09:30:30.477Z,11.4
2019-04-16T09:31:30.638Z,13.1
2019-04-16T09:32:30.708Z,10.9
2019-04-16T09:33:33.449Z,12.3
2019-04-16T09:34:31.941Z,11.8
2019-04-16T09:35:30.923Z,11.8
2019-04-16T09:36:30.965Z,11.3
2019-04-16T09:37:30.950Z,13.7
2019-04-16T09:38:32.095Z,11.7
2019-04-16T09:39:31.056Z,12.8
2019-04-16T09:40:31.234Z,12
2019-04-16T09:41:31.435Z,12.9
2019-04-16T09:42:31.451Z,12
2019-04-16T09:43:31.439Z,12.7
2019-04-16T09:44:33.705Z,11.1
2019-04-16T09:45:33.765Z,12
2019-04-16T09:46:50.245Z,15.8
2019-04-16T09:47:33.440Z,13.9
2019-04-16T09:48:34.726Z,11.7
2019-04-16T09:49:34.279Z,12.8
2019-04-16T09:50:33.192Z,13
2019-04-16T09:51:32.422Z,12.5
2019-04-16T09:52:32.419Z,13.7
2019-04-16T09:53:34.336Z,13.1
2019-04-16T09:54:33.514Z,12
2019-04-16T09:55:32.665Z,12.8
2019-04-16T09:56:32.635Z,12.8
2019-04-16T09:57:32.779Z,13.2
2019-04-16T09:58:34.820Z,12.3
2019-04-16T09:59:33.900Z,14.4
2019-04-16T10:00:33.088Z,12.8
2019-04-16T10:01:33.107Z,14.8
2019-04-16T10:02:33.113Z,15.2
2019-04-16T10:03:33.095Z,15.9
2019-04-16T10:04:33.311Z,13.5
2019-04-16T10:05:33.245Z,13
2019-04-16T10:06:33.558Z,16.200001
2019-04-16T10:07:33.497Z,15.6
2019-04-16T10:08:33.527Z,14.1
2019-04-16T10:09:33.622Z,13.5
2019-04-16T10:10:33.641Z,13.3
2019-04-16T10:11:35.696Z,15.4
2019-04-16T10:12:35.025Z,13
2019-04-16T10:13:35.985Z,13.2
2019-04-16T10:14:35.158Z,14.1
2019-04-16T10:15:34.151Z,13.6
2019-04-16T10:16:34.125Z,14.3
2019-04-16T10:17:34.301Z,13.6
2019-04-16T10:18:35.050Z,13.4
2019-04-16T10:19:35.412Z,17.200001
2019-04-16T10:20:34.569Z,14.4
2019-04-16T10:21:34.534Z,13.6
2019-04-16T10:22:34.714Z,13.5
2019-04-16T10:23:34.730Z,13.1
2019-04-16T10:24:34.767Z,13.7
2019-04-16T10:25:34.841Z,13.7
2019-04-16T10:26:34.904Z,16.700001
2019-04-16T10:27:34.976Z,14.5
2019-04-16T10:28:36.929Z,13.5
2019-04-16T10:29:36.052Z,14.3
2019-04-16T10:30:35.193Z,13.7
2019-04-16T10:31:35.283Z,14.2
2019-04-16T10:32:35.439Z,13.8
2019-04-16T10:33:35.366Z,13.9
2019-04-16T10:34:36.389Z,14.6
2019-04-16T10:35:36.630Z,13.8
2019-04-16T10:36:37.925Z,14.3
2019-04-16T10:37:36.875Z,13.9
2019-04-16T10:38:35.855Z,13.8
2019-04-16T10:39:36.021Z,13.7
2019-04-16T10:40:36.125Z,14.1
2019-04-16T10:41:36.877Z,13.8
2019-04-16T10:42:36.323Z,14.1
2019-04-16T10:43:44.197Z,14.9
2019-04-16T10:44:37.426Z,15.2
2019-04-16T10:45:36.547Z,15.3
2019-04-16T10:46:36.559Z,14.7
2019-04-16T10:47:36.677Z,14.4
2019-04-16T10:48:36.711Z,15.7
2019-04-16T10:49:36.685Z,14.9
2019-04-16T10:50:36.804Z,14.9
2019-04-16T10:51:36.820Z,16.299999
2019-04-16T10:52:36.907Z,16.799999
2019-04-16T10:53:37.113Z,15.8
2019-04-16T10:54:38.350Z,15.4
2019-04-16T10:55:37.313Z,15.7
2019-04-16T10:56:37.448Z,16.9
2019-04-16T10:57:38.450Z,16.5
2019-04-16T10:58:38.705Z,16.9
2019-04-16T10:59:37.853Z,16.4
2019-04-16T11:00:38.033Z,16.5
2019-04-16T11:01:37.994Z,15.7
2019-04-16T11:02:37.960Z,16.799999
2019-04-16T11:03:38.084Z,16.5
2019-04-16T11:04:42.958Z,16.9
2019-04-16T11:05:39.499Z,15.8
2019-04-16T11:06:38.416Z,16.1
2019-04-16T11:07:38.534Z,16
2019-04-16T11:08:38.691Z,16.1
2019-04-16T11:09:38.818Z,16.799999
2019-04-16T11:10:38.888Z,16.4
2019-04-16T11:11:39.002Z,16.6
2019-04-16T11:12:39.126Z,16.6
2019-04-16T11:13:39.298Z,15.8
2019-04-16T11:14:39.291Z,16.1
2019-04-16T11:15:39.350Z,16.200001
2019-04-16T11:16:39.312Z,15.4
2019-04-16T11:17:39.411Z,16.200001
2019-04-16T11:18:40.617Z,15.7
2019-04-16T11:19:39.685Z,15.6
2019-04-16T11:20:39.813Z,15.8
2019-04-16T11:21:39.908Z,16.1
2019-04-16T11:22:40.071Z,15.4
2019-04-16T11:23:40.196Z,15.8
2019-04-16T11:24:40.329Z,16.200001
2019-04-16T11:25:40.434Z,16.5
2019-04-16T11:26:40.560Z,15.4
2019-04-16T11:27:40.686Z,16.200001
2019-04-16T11:28:40.792Z,16.5
2019-04-16T11:29:41.915Z,16
2019-04-16T11:30:42.106Z,15.3
2019-04-16T11:31:41.218Z,15.2
2019-04-16T11:32:41.290Z,16.1
2019-04-16T11:33:41.401Z,15.4
2019-04-16T11:34:41.582Z,15.4
2019-04-16T11:35:41.758Z,14.8
2019-04-16T11:36:41.790Z,15.1
2019-04-16T11:37:44.398Z,15.5
2019-04-16T11:38:43.033Z,14.6
2019-04-16T11:39:42.072Z,15.5
2019-04-16T11:40:41.994Z,15.4
2019-04-16T11:41:42.115Z,14.9
2019-04-16T11:42:42.245Z,15.4
2019-04-16T11:43:42.363Z,15.6
2019-04-16T11:44:42.604Z,15.5
2019-04-16T11:45:42.551Z,15.3
2019-04-16T11:46:42.663Z,15.2
2019-04-16T11:47:42.776Z,15.7
2019-04-16T11:48:42.910Z,14.7
2019-04-16T11:49:43.023Z,14.4
2019-04-16T11:50:43.072Z,15
2019-04-16T11:51:43.199Z,15.4
2019-04-16T11:52:43.300Z,15.2
2019-04-16T11:53:43.444Z,15.8
2019-04-16T11:54:46.742Z,15.7
2019-04-16T11:55:44.768Z,16
2019-04-16T11:56:43.890Z,16.1
2019-04-16T11:57:44.003Z,16.5
2019-04-16T11:58:44.119Z,15.4
2019-04-16T11:59:44.263Z,15.1
2019-04-16T12:00:44.473Z,16.1
2019-04-16T12:01:44.398Z,16
2019-04-16T12:02:44.512Z,16.1
2019-04-16T12:03:44.643Z,15.9
2019-04-16T12:04:44.767Z,16.299999
2019-04-16T12:05:44.901Z,15.9
2019-04-16T12:06:45.031Z,16.5
2019-04-16T12:07:46.965Z,16.1
2019-04-16T12:08:46.287Z,16.4
2019-04-16T12:09:45.393Z,17.6
2019-04-16T12:10:45.568Z,17
2019-04-16T12:11:45.531Z,16.200001
2019-04-16T12:12:45.690Z,16.4
2019-04-16T12:13:45.802Z,16.799999
2019-04-16T12:14:45.933Z,16.6
2019-04-16T12:15:46.198Z,17.299999
2019-04-16T12:16:46.251Z,17.200001
2019-04-16T12:17:46.350Z,16.4
2019-04-16T12:18:46.450Z,17.200001
2019-04-16T12:19:46.564Z,16.700001
2019-04-16T12:20:46.746Z,16.200001
2019-04-16T12:21:46.953Z,16.1
2019-04-16T12:22:46.931Z,16.6
2019-04-16T12:23:47.107Z,16.299999
2019-04-16T12:24:47.215Z,16.200001
2019-04-16T12:25:47.283Z,16.4
2019-04-16T12:26:47.459Z,16.299999
2019-04-16T12:27:47.560Z,15.8
2019-04-16T12:28:47.680Z,16.1
2019-04-16T12:29:47.828Z,16.6
2019-04-16T12:30:47.938Z,16.4
2019-04-16T12:31:48.135Z,17.5
2019-04-16T12:32:48.250Z,16.1
2019-04-16T12:33:48.228Z,15.8
2019-04-16T12:34:51.140Z,16.299999
2019-04-16T12:35:49.542Z,15.7
2019-04-16T12:36:48.651Z,15.2
2019-04-16T12:37:48.809Z,16.1
2019-04-16T12:38:48.934Z,15.5
2019-04-16T12:39:49.017Z,15.8
2019-04-16T12:40:49.125Z,15.2
2019-04-16T12:41:49.302Z,16.4
2019-04-16T12:42:49.208Z,15.9
2019-04-16T12:43:50.973Z,16
2019-04-16T12:44:50.464Z,16
2019-04-16T12:45:53.066Z,16.1
2019-04-16T12:46:50.693Z,15.5
2019-04-16T12:47:49.834Z,15.9
2019-04-16T12:48:49.980Z,16.4
2019-04-16T12:49:50.146Z,15.6
2019-04-16T12:50:50.220Z,15.7
2019-04-16T12:51:51.357Z,15.7
2019-04-16T12:52:51.893Z,16
2019-04-16T12:53:53.334Z,15.7
2019-04-16T12:54:51.737Z,15
2019-04-16T12:55:50.739Z,15.5
2019-04-16T12:56:50.931Z,15.4
2019-04-16T12:57:50.872Z,15.4
2019-04-16T12:58:51.353Z,14.7
2019-04-16T12:59:54.625Z,15.6
2019-04-16T13:00:52.172Z,16.299999
2019-04-16T13:01:51.286Z,15.9
2019-04-16T13:02:51.417Z,15.1
2019-04-16T13:03:52.571Z,15.8
2019-04-16T13:04:52.654Z,15.6
2019-04-16T13:05:53.857Z,16.1
2019-04-16T13:06:52.880Z,16.200001
2019-04-16T13:07:51.992Z,16.4